sensor_id;sensor_type;location;lat;lon;timestamp;P1;durP1;ratioP1;P2;durP2;ratioP2
73296;SDS011;61524;50.938;11.396;2023-04-06T00:00:32;10.68;;;6.38;;
73296;SDS011;61524;50.938;11.396;2023-04-06T00:02:57;11.70;;;7.90;;
73296;SDS011;61524;50.938;11.396;2023-04-06T00:05:22;12.32;;;7.00;;
73296;SDS011;61524;50.938;11.396;2023-04-06T00:07:48;11.73;;;7.43;;
73296;SDS011;61524;50.938;11.396;2023-04-06T00:10:13;10.00;;;6.60;;
73296;SDS011;61524;50.938;11.396;2023-04-06T00:12:39;11.20;;;6.78;;
73296;SDS011;61524;50.938;11.396;2023-04-06T00:15:04;13.70;;;6.70;;
73296;SDS011;61524;50.938;11.396;2023-04-06T00:17:30;9.07;;;6.55;;
73296;SDS011;61524;50.938;11.396;2023-04-06T00:19:56;11.20;;;7.10;;
73296;SDS011;61524;50.938;11.396;2023-04-06T00:22:21;10.73;;;6.27;;
73296;SDS011;61524;50.938;11.396;2023-04-06T00:24:46;10.82;;;6.70;;
73296;SDS011;61524;50.938;11.396;2023-04-06T00:27:12;11.77;;;7.07;;
73296;SDS011;61524;50.938;11.396;2023-04-06T00:29:37;11.65;;;6.85;;
73296;SDS011;61524;50.938;11.396;2023-04-06T00:32:03;13.82;;;6.90;;
73296;SDS011;61524;50.938;11.396;2023-04-06T00:34:29;10.30;;;6.72;;
73296;SDS011;61524;50.938;11.396;2023-04-06T00:36:54;12.75;;;6.72;;
73296;SDS011;61524;50.938;11.396;2023-04-06T00:39:19;8.80;;;6.05;;
73296;SDS011;61524;50.938;11.396;2023-04-06T00:41:45;10.85;;;5.63;;
73296;SDS011;61524;50.938;11.396;2023-04-06T00:44:11;10.50;;;6.15;;
73296;SDS011;61524;50.938;11.396;2023-04-06T00:46:36;10.00;;;6.23;;
73296;SDS011;61524;50.938;11.396;2023-04-06T00:49:01;11.18;;;6.72;;
73296;SDS011;61524;50.938;11.396;2023-04-06T00:51:27;9.30;;;6.43;;
73296;SDS011;61524;50.938;11.396;2023-04-06T00:53:52;10.10;;;6.72;;
73296;SDS011;61524;50.938;11.396;2023-04-06T00:56:17;12.13;;;7.00;;
73296;SDS011;61524;50.938;11.396;2023-04-06T00:58:43;10.73;;;6.57;;
73296;SDS011;61524;50.938;11.396;2023-04-06T01:01:08;13.40;;;7.28;;
73296;SDS011;61524;50.938;11.396;2023-04-06T01:03:33;9.57;;;6.38;;
73296;SDS011;61524;50.938;11.396;2023-04-06T01:05:59;10.07;;;6.43;;
73296;SDS011;61524;50.938;11.396;2023-04-06T01:08:24;9.73;;;6.32;;
73296;SDS011;61524;50.938;11.396;2023-04-06T01:10:50;10.55;;;5.85;;
73296;SDS011;61524;50.938;11.396;2023-04-06T01:13:16;9.38;;;6.03;;
73296;SDS011;61524;50.938;11.396;2023-04-06T01:15:41;8.88;;;6.10;;
73296;SDS011;61524;50.938;11.396;2023-04-06T01:18:10;9.95;;;6.10;;
73296;SDS011;61524;50.938;11.396;2023-04-06T01:20:35;10.77;;;6.78;;
73296;SDS011;61524;50.938;11.396;2023-04-06T01:23:01;10.32;;;6.30;;
73296;SDS011;61524;50.938;11.396;2023-04-06T01:25:26;11.35;;;6.07;;
73296;SDS011;61524;50.938;11.396;2023-04-06T01:27:51;9.75;;;6.18;;
73296;SDS011;61524;50.938;11.396;2023-04-06T01:30:17;10.90;;;6.50;;
73296;SDS011;61524;50.938;11.396;2023-04-06T01:32:42;8.57;;;5.57;;
73296;SDS011;61524;50.938;11.396;2023-04-06T01:35:08;11.60;;;5.85;;
73296;SDS011;61524;50.938;11.396;2023-04-06T01:37:33;12.38;;;6.88;;
73296;SDS011;61524;50.938;11.396;2023-04-06T01:39:59;9.30;;;5.50;;
73296;SDS011;61524;50.938;11.396;2023-04-06T01:42:24;11.30;;;5.60;;
73296;SDS011;61524;50.938;11.396;2023-04-06T01:44:51;9.18;;;5.80;;
73296;SDS011;61524;50.938;11.396;2023-04-06T01:47:16;10.52;;;6.20;;
73296;SDS011;61524;50.938;11.396;2023-04-06T01:49:41;12.07;;;6.20;;
73296;SDS011;61524;50.938;11.396;2023-04-06T01:52:07;9.73;;;6.13;;
73296;SDS011;61524;50.938;11.396;2023-04-06T01:54:32;10.57;;;6.40;;
73296;SDS011;61524;50.938;11.396;2023-04-06T01:56:57;13.48;;;5.90;;
73296;SDS011;61524;50.938;11.396;2023-04-06T01:59:23;9.77;;;5.80;;
73296;SDS011;61524;50.938;11.396;2023-04-06T02:01:48;8.67;;;5.77;;
73296;SDS011;61524;50.938;11.396;2023-04-06T02:04:13;14.00;;;5.97;;
73296;SDS011;61524;50.938;11.396;2023-04-06T02:06:39;11.07;;;6.38;;
73296;SDS011;61524;50.938;11.396;2023-04-06T02:09:05;10.13;;;6.10;;
73296;SDS011;61524;50.938;11.396;2023-04-06T02:11:30;8.65;;;5.00;;
73296;SDS011;61524;50.938;11.396;2023-04-06T02:13:56;9.40;;;5.68;;
73296;SDS011;61524;50.938;11.396;2023-04-06T02:16:21;11.63;;;6.53;;
73296;SDS011;61524;50.938;11.396;2023-04-06T02:18:47;9.05;;;6.05;;
73296;SDS011;61524;50.938;11.396;2023-04-06T02:21:12;9.98;;;6.03;;
73296;SDS011;61524;50.938;11.396;2023-04-06T02:23:37;9.55;;;6.07;;
73296;SDS011;61524;50.938;11.396;2023-04-06T02:26:03;8.93;;;5.40;;
73296;SDS011;61524;50.938;11.396;2023-04-06T02:28:28;8.57;;;5.50;;
73296;SDS011;61524;50.938;11.396;2023-04-06T02:30:53;7.87;;;4.77;;
73296;SDS011;61524;50.938;11.396;2023-04-06T02:33:18;11.23;;;5.43;;
73296;SDS011;61524;50.938;11.396;2023-04-06T02:35:44;8.85;;;5.35;;
73296;SDS011;61524;50.938;11.396;2023-04-06T02:38:10;10.50;;;5.72;;
73296;SDS011;61524;50.938;11.396;2023-04-06T02:40:36;7.97;;;5.27;;
73296;SDS011;61524;50.938;11.396;2023-04-06T02:43:01;8.50;;;5.07;;
73296;SDS011;61524;50.938;11.396;2023-04-06T02:45:26;10.45;;;5.75;;
73296;SDS011;61524;50.938;11.396;2023-04-06T02:47:52;9.40;;;5.53;;
73296;SDS011;61524;50.938;11.396;2023-04-06T02:50:17;9.73;;;5.47;;
73296;SDS011;61524;50.938;11.396;2023-04-06T02:52:42;11.68;;;6.35;;
73296;SDS011;61524;50.938;11.396;2023-04-06T02:55:08;8.45;;;5.63;;
73296;SDS011;61524;50.938;11.396;2023-04-06T02:57:33;8.57;;;5.28;;
73296;SDS011;61524;50.938;11.396;2023-04-06T02:59:58;11.38;;;5.82;;
73296;SDS011;61524;50.938;11.396;2023-04-06T03:02:24;8.45;;;5.35;;
73296;SDS011;61524;50.938;11.396;2023-04-06T03:04:49;9.40;;;5.33;;
73296;SDS011;61524;50.938;11.396;2023-04-06T03:07:14;9.77;;;5.33;;
73296;SDS011;61524;50.938;11.396;2023-04-06T03:09:40;9.60;;;6.03;;
73296;SDS011;61524;50.938;11.396;2023-04-06T03:12:05;8.70;;;5.20;;
73296;SDS011;61524;50.938;11.396;2023-04-06T03:14:31;8.27;;;5.15;;
73296;SDS011;61524;50.938;11.396;2023-04-06T03:16:56;11.43;;;5.23;;
73296;SDS011;61524;50.938;11.396;2023-04-06T03:19:21;7.22;;;5.25;;
73296;SDS011;61524;50.938;11.396;2023-04-06T03:21:46;8.88;;;5.43;;
73296;SDS011;61524;50.938;11.396;2023-04-06T03:24:12;9.27;;;4.83;;
73296;SDS011;61524;50.938;11.396;2023-04-06T03:26:38;9.00;;;5.45;;
73296;SDS011;61524;50.938;11.396;2023-04-06T03:29:04;10.07;;;4.97;;
73296;SDS011;61524;50.938;11.396;2023-04-06T03:31:29;8.10;;;4.90;;
73296;SDS011;61524;50.938;11.396;2023-04-06T03:33:55;9.75;;;5.78;;
73296;SDS011;61524;50.938;11.396;2023-04-06T03:36:20;7.63;;;4.88;;
73296;SDS011;61524;50.938;11.396;2023-04-06T03:38:46;7.47;;;4.93;;
73296;SDS011;61524;50.938;11.396;2023-04-06T03:41:12;8.38;;;5.40;;
73296;SDS011;61524;50.938;11.396;2023-04-06T03:43:37;8.50;;;4.83;;
73296;SDS011;61524;50.938;11.396;2023-04-06T03:46:02;12.03;;;5.07;;
73296;SDS011;61524;50.938;11.396;2023-04-06T03:48:27;10.70;;;5.43;;
73296;SDS011;61524;50.938;11.396;2023-04-06T03:50:53;7.87;;;4.83;;
73296;SDS011;61524;50.938;11.396;2023-04-06T03:53:18;8.93;;;5.40;;
73296;SDS011;61524;50.938;11.396;2023-04-06T03:55:43;9.23;;;4.68;;
73296;SDS011;61524;50.938;11.396;2023-04-06T03:58:09;8.55;;;4.95;;
73296;SDS011;61524;50.938;11.396;2023-04-06T04:00:34;10.23;;;5.22;;
73296;SDS011;61524;50.938;11.396;2023-04-06T04:03:00;9.30;;;5.57;;
73296;SDS011;61524;50.938;11.396;2023-04-06T04:05:27;10.10;;;5.05;;
73296;SDS011;61524;50.938;11.396;2023-04-06T04:07:52;9.52;;;5.35;;
73296;SDS011;61524;50.938;11.396;2023-04-06T04:10:17;11.00;;;4.87;;
73296;SDS011;61524;50.938;11.396;2023-04-06T04:12:43;9.83;;;5.43;;
73296;SDS011;61524;50.938;11.396;2023-04-06T04:15:08;9.73;;;5.55;;
73296;SDS011;61524;50.938;11.396;2023-04-06T04:17:33;8.75;;;5.97;;
73296;SDS011;61524;50.938;11.396;2023-04-06T04:19:59;10.10;;;5.87;;
73296;SDS011;61524;50.938;11.396;2023-04-06T04:22:24;9.02;;;5.13;;
73296;SDS011;61524;50.938;11.396;2023-04-06T04:24:49;8.85;;;5.88;;
73296;SDS011;61524;50.938;11.396;2023-04-06T04:27:15;12.23;;;5.83;;
73296;SDS011;61524;50.938;11.396;2023-04-06T04:29:40;9.88;;;5.57;;
73296;SDS011;61524;50.938;11.396;2023-04-06T04:32:05;9.27;;;5.13;;
73296;SDS011;61524;50.938;11.396;2023-04-06T04:34:30;7.57;;;4.83;;
73296;SDS011;61524;50.938;11.396;2023-04-06T04:36:56;8.15;;;5.35;;
73296;SDS011;61524;50.938;11.396;2023-04-06T04:39:22;11.18;;;6.22;;
73296;SDS011;61524;50.938;11.396;2023-04-06T04:41:47;9.45;;;5.68;;
73296;SDS011;61524;50.938;11.396;2023-04-06T04:44:12;8.43;;;5.32;;
73296;SDS011;61524;50.938;11.396;2023-04-06T04:46:38;8.48;;;4.65;;
73296;SDS011;61524;50.938;11.396;2023-04-06T04:49:03;8.43;;;5.18;;
73296;SDS011;61524;50.938;11.396;2023-04-06T04:51:29;10.73;;;5.40;;
73296;SDS011;61524;50.938;11.396;2023-04-06T04:53:55;8.52;;;4.80;;
73296;SDS011;61524;50.938;11.396;2023-04-06T04:56:20;10.23;;;5.82;;
73296;SDS011;61524;50.938;11.396;2023-04-06T04:58:45;9.07;;;5.27;;
73296;SDS011;61524;50.938;11.396;2023-04-06T05:01:11;10.53;;;5.23;;
73296;SDS011;61524;50.938;11.396;2023-04-06T05:03:36;7.45;;;5.07;;
73296;SDS011;61524;50.938;11.396;2023-04-06T05:06:03;7.00;;;4.38;;
73296;SDS011;61524;50.938;11.396;2023-04-06T05:08:29;10.82;;;4.63;;
73296;SDS011;61524;50.938;11.396;2023-04-06T05:10:54;7.97;;;4.97;;
73296;SDS011;61524;50.938;11.396;2023-04-06T05:13:20;8.93;;;4.70;;
73296;SDS011;61524;50.938;11.396;2023-04-06T05:15:45;11.27;;;5.22;;
73296;SDS011;61524;50.938;11.396;2023-04-06T05:18:11;7.30;;;5.28;;
73296;SDS011;61524;50.938;11.396;2023-04-06T05:20:39;9.20;;;5.93;;
73296;SDS011;61524;50.938;11.396;2023-04-06T05:25:30;11.20;;;5.17;;
73296;SDS011;61524;50.938;11.396;2023-04-06T05:27:55;9.07;;;5.63;;
73296;SDS011;61524;50.938;11.396;2023-04-06T05:30:20;7.75;;;5.43;;
73296;SDS011;61524;50.938;11.396;2023-04-06T05:32:46;11.32;;;6.15;;
73296;SDS011;61524;50.938;11.396;2023-04-06T05:35:11;8.98;;;5.85;;
73296;SDS011;61524;50.938;11.396;2023-04-06T05:37:37;9.98;;;6.20;;
73296;SDS011;61524;50.938;11.396;2023-04-06T05:40:03;10.82;;;5.65;;
73296;SDS011;61524;50.938;11.396;2023-04-06T05:42:35;9.82;;;5.32;;
73296;SDS011;61524;50.938;11.396;2023-04-06T05:45:01;8.88;;;5.40;;
73296;SDS011;61524;50.938;11.396;2023-04-06T05:47:27;7.88;;;5.13;;
73296;SDS011;61524;50.938;11.396;2023-04-06T05:49:52;10.80;;;5.80;;
73296;SDS011;61524;50.938;11.396;2023-04-06T05:52:17;12.57;;;5.87;;
73296;SDS011;61524;50.938;11.396;2023-04-06T05:54:42;7.53;;;5.13;;
73296;SDS011;61524;50.938;11.396;2023-04-06T05:57:08;9.93;;;5.33;;
73296;SDS011;61524;50.938;11.396;2023-04-06T05:59:33;11.87;;;5.50;;
73296;SDS011;61524;50.938;11.396;2023-04-06T06:01:58;8.27;;;5.37;;
73296;SDS011;61524;50.938;11.396;2023-04-06T06:06:51;9.63;;;6.03;;
73296;SDS011;61524;50.938;11.396;2023-04-06T06:09:16;14.43;;;6.23;;
73296;SDS011;61524;50.938;11.396;2023-04-06T06:11:41;20.13;;;7.00;;
73296;SDS011;61524;50.938;11.396;2023-04-06T06:14:07;14.48;;;6.93;;
73296;SDS011;61524;50.938;11.396;2023-04-06T06:16:32;22.15;;;7.65;;
73296;SDS011;61524;50.938;11.396;2023-04-06T06:18:58;13.88;;;6.30;;
73296;SDS011;61524;50.938;11.396;2023-04-06T06:21:23;17.25;;;6.65;;
73296;SDS011;61524;50.938;11.396;2023-04-06T06:23:48;14.60;;;5.93;;
73296;SDS011;61524;50.938;11.396;2023-04-06T06:26:15;12.63;;;5.57;;
73296;SDS011;61524;50.938;11.396;2023-04-06T06:28:40;17.10;;;6.90;;
73296;SDS011;61524;50.938;11.396;2023-04-06T06:31:05;14.30;;;6.25;;
73296;SDS011;61524;50.938;11.396;2023-04-06T06:33:31;11.47;;;5.33;;
73296;SDS011;61524;50.938;11.396;2023-04-06T06:35:56;11.23;;;5.87;;
73296;SDS011;61524;50.938;11.396;2023-04-06T06:38:21;9.20;;;5.47;;
73296;SDS011;61524;50.938;11.396;2023-04-06T06:40:46;11.77;;;5.43;;
73296;SDS011;61524;50.938;11.396;2023-04-06T06:43:12;9.82;;;5.40;;
73296;SDS011;61524;50.938;11.396;2023-04-06T06:45:37;10.67;;;5.00;;
73296;SDS011;61524;50.938;11.396;2023-04-06T06:48:02;9.77;;;5.10;;
73296;SDS011;61524;50.938;11.396;2023-04-06T06:50:28;9.57;;;4.97;;
73296;SDS011;61524;50.938;11.396;2023-04-06T06:52:53;9.77;;;4.47;;
73296;SDS011;61524;50.938;11.396;2023-04-06T06:55:18;10.10;;;4.82;;
73296;SDS011;61524;50.938;11.396;2023-04-06T06:57:44;9.15;;;5.05;;
73296;SDS011;61524;50.938;11.396;2023-04-06T07:00:11;7.72;;;5.25;;
73296;SDS011;61524;50.938;11.396;2023-04-06T07:02:38;8.55;;;4.88;;
73296;SDS011;61524;50.938;11.396;2023-04-06T07:05:03;8.73;;;4.80;;
73296;SDS011;61524;50.938;11.396;2023-04-06T07:07:29;10.65;;;5.03;;
73296;SDS011;61524;50.938;11.396;2023-04-06T07:09:54;8.00;;;4.80;;
73296;SDS011;61524;50.938;11.396;2023-04-06T07:12:20;6.50;;;4.57;;
73296;SDS011;61524;50.938;11.396;2023-04-06T07:14:45;8.00;;;5.27;;
73296;SDS011;61524;50.938;11.396;2023-04-06T07:17:10;13.10;;;5.50;;
73296;SDS011;61524;50.938;11.396;2023-04-06T07:19:36;9.73;;;5.37;;
73296;SDS011;61524;50.938;11.396;2023-04-06T07:22:01;9.73;;;5.33;;
73296;SDS011;61524;50.938;11.396;2023-04-06T07:24:28;7.40;;;5.03;;
73296;SDS011;61524;50.938;11.396;2023-04-06T07:26:53;7.93;;;4.60;;
73296;SDS011;61524;50.938;11.396;2023-04-06T07:29:18;8.70;;;4.63;;
73296;SDS011;61524;50.938;11.396;2023-04-06T07:31:44;8.10;;;4.10;;
73296;SDS011;61524;50.938;11.396;2023-04-06T07:34:10;6.93;;;4.30;;
73296;SDS011;61524;50.938;11.396;2023-04-06T07:36:35;7.93;;;4.50;;
73296;SDS011;61524;50.938;11.396;2023-04-06T07:39:00;7.10;;;4.50;;
73296;SDS011;61524;50.938;11.396;2023-04-06T07:41:25;6.53;;;3.77;;
73296;SDS011;61524;50.938;11.396;2023-04-06T07:43:51;8.20;;;4.10;;
73296;SDS011;61524;50.938;11.396;2023-04-06T07:46:16;6.77;;;3.37;;
73296;SDS011;61524;50.938;11.396;2023-04-06T07:48:41;8.63;;;3.83;;
73296;SDS011;61524;50.938;11.396;2023-04-06T07:51:07;7.47;;;3.72;;
73296;SDS011;61524;50.938;11.396;2023-04-06T07:53:33;7.30;;;3.80;;
73296;SDS011;61524;50.938;11.396;2023-04-06T07:55:59;7.55;;;3.90;;
73296;SDS011;61524;50.938;11.396;2023-04-06T07:58:24;9.23;;;4.28;;
73296;SDS011;61524;50.938;11.396;2023-04-06T08:00:50;7.90;;;3.92;;
73296;SDS011;61524;50.938;11.396;2023-04-06T08:03:15;8.93;;;3.92;;
73296;SDS011;61524;50.938;11.396;2023-04-06T08:05:41;6.15;;;3.22;;
73296;SDS011;61524;50.938;11.396;2023-04-06T08:08:07;6.55;;;3.72;;
73296;SDS011;61524;50.938;11.396;2023-04-06T08:10:33;6.10;;;3.83;;
73296;SDS011;61524;50.938;11.396;2023-04-06T08:12:59;11.23;;;3.80;;
73296;SDS011;61524;50.938;11.396;2023-04-06T08:15:24;8.52;;;3.88;;
73296;SDS011;61524;50.938;11.396;2023-04-06T08:17:50;6.40;;;3.65;;
73296;SDS011;61524;50.938;11.396;2023-04-06T08:20:15;9.15;;;3.70;;
73296;SDS011;61524;50.938;11.396;2023-04-06T08:22:40;8.63;;;3.90;;
73296;SDS011;61524;50.938;11.396;2023-04-06T08:25:06;6.67;;;3.63;;
73296;SDS011;61524;50.938;11.396;2023-04-06T08:27:31;10.30;;;4.13;;
73296;SDS011;61524;50.938;11.396;2023-04-06T08:29:56;7.40;;;4.00;;
73296;SDS011;61524;50.938;11.396;2023-04-06T08:32:22;5.85;;;3.67;;
73296;SDS011;61524;50.938;11.396;2023-04-06T08:34:47;7.27;;;3.87;;
73296;SDS011;61524;50.938;11.396;2023-04-06T08:37:12;6.65;;;3.70;;
73296;SDS011;61524;50.938;11.396;2023-04-06T08:39:38;7.00;;;4.03;;
73296;SDS011;61524;50.938;11.396;2023-04-06T08:42:03;7.70;;;3.67;;
73296;SDS011;61524;50.938;11.396;2023-04-06T08:44:29;7.70;;;3.90;;
73296;SDS011;61524;50.938;11.396;2023-04-06T08:46:55;6.93;;;3.83;;
73296;SDS011;61524;50.938;11.396;2023-04-06T08:49:20;9.85;;;3.55;;
73296;SDS011;61524;50.938;11.396;2023-04-06T08:51:46;7.60;;;4.05;;
73296;SDS011;61524;50.938;11.396;2023-04-06T08:54:12;7.93;;;4.20;;
73296;SDS011;61524;50.938;11.396;2023-04-06T08:56:37;6.53;;;3.60;;
73296;SDS011;61524;50.938;11.396;2023-04-06T08:59:03;5.63;;;3.38;;
73296;SDS011;61524;50.938;11.396;2023-04-06T09:01:30;6.97;;;3.63;;
73296;SDS011;61524;50.938;11.396;2023-04-06T09:03:59;6.05;;;3.97;;
73296;SDS011;61524;50.938;11.396;2023-04-06T09:06:25;6.40;;;4.03;;
73296;SDS011;61524;50.938;11.396;2023-04-06T09:08:55;7.05;;;4.05;;
73296;SDS011;61524;50.938;11.396;2023-04-06T09:11:21;6.80;;;3.90;;
73296;SDS011;61524;50.938;11.396;2023-04-06T09:13:51;7.53;;;3.38;;
73296;SDS011;61524;50.938;11.396;2023-04-06T09:16:17;4.88;;;2.60;;
73296;SDS011;61524;50.938;11.396;2023-04-06T09:18:42;6.75;;;3.38;;
73296;SDS011;61524;50.938;11.396;2023-04-06T09:21:08;6.50;;;3.97;;
73296;SDS011;61524;50.938;11.396;2023-04-06T09:23:33;6.55;;;3.92;;
73296;SDS011;61524;50.938;11.396;2023-04-06T09:26:05;6.10;;;3.50;;
73296;SDS011;61524;50.938;11.396;2023-04-06T09:28:44;5.72;;;3.35;;
73296;SDS011;61524;50.938;11.396;2023-04-06T09:31:10;7.63;;;3.97;;
73296;SDS011;61524;50.938;11.396;2023-04-06T09:33:43;6.53;;;3.90;;
73296;SDS011;61524;50.938;11.396;2023-04-06T09:36:08;6.47;;;3.60;;
73296;SDS011;61524;50.938;11.396;2023-04-06T09:38:36;7.72;;;3.42;;
73296;SDS011;61524;50.938;11.396;2023-04-06T09:41:01;6.10;;;3.33;;
73296;SDS011;61524;50.938;11.396;2023-04-06T09:43:27;6.25;;;3.17;;
73296;SDS011;61524;50.938;11.396;2023-04-06T09:45:52;6.75;;;3.75;;
73296;SDS011;61524;50.938;11.396;2023-04-06T09:48:19;7.20;;;3.88;;
73296;SDS011;61524;50.938;11.396;2023-04-06T09:50:46;6.10;;;2.92;;
73296;SDS011;61524;50.938;11.396;2023-04-06T09:53:12;5.13;;;3.25;;
73296;SDS011;61524;50.938;11.396;2023-04-06T09:55:42;6.22;;;3.22;;
73296;SDS011;61524;50.938;11.396;2023-04-06T09:58:09;5.90;;;3.10;;
73296;SDS011;61524;50.938;11.396;2023-04-06T10:03:27;7.63;;;3.70;;
73296;SDS011;61524;50.938;11.396;2023-04-06T10:05:57;6.38;;;3.30;;
73296;SDS011;61524;50.938;11.396;2023-04-06T10:08:24;7.35;;;3.38;;
73296;SDS011;61524;50.938;11.396;2023-04-06T10:10:50;6.32;;;3.25;;
73296;SDS011;61524;50.938;11.396;2023-04-06T10:13:15;6.50;;;3.15;;
73296;SDS011;61524;50.938;11.396;2023-04-06T10:15:41;7.18;;;4.00;;
73296;SDS011;61524;50.938;11.396;2023-04-06T10:18:07;5.80;;;3.05;;
73296;SDS011;61524;50.938;11.396;2023-04-06T10:21:33;6.95;;;3.97;;
73296;SDS011;61524;50.938;11.396;2023-04-06T10:23:42;5.75;;;3.38;;
73296;SDS011;61524;50.938;11.396;2023-04-06T10:26:12;5.00;;;2.80;;
73296;SDS011;61524;50.938;11.396;2023-04-06T10:28:38;5.70;;;3.60;;
73296;SDS011;61524;50.938;11.396;2023-04-06T10:31:06;6.22;;;3.45;;
73296;SDS011;61524;50.938;11.396;2023-04-06T10:33:31;6.30;;;3.63;;
73296;SDS011;61524;50.938;11.396;2023-04-06T10:35:57;6.22;;;3.40;;
73296;SDS011;61524;50.938;11.396;2023-04-06T10:38:43;6.88;;;3.03;;
73296;SDS011;61524;50.938;11.396;2023-04-06T10:41:08;8.65;;;3.72;;
73296;SDS011;61524;50.938;11.396;2023-04-06T10:43:34;5.32;;;3.20;;
73296;SDS011;61524;50.938;11.396;2023-04-06T10:46:03;5.75;;;3.67;;
73296;SDS011;61524;50.938;11.396;2023-04-06T10:51:07;8.52;;;3.55;;
73296;SDS011;61524;50.938;11.396;2023-04-06T10:53:32;7.85;;;3.58;;
73296;SDS011;61524;50.938;11.396;2023-04-06T10:55:58;6.50;;;3.40;;
73296;SDS011;61524;50.938;11.396;2023-04-06T10:58:26;6.03;;;3.72;;
73296;SDS011;61524;50.938;11.396;2023-04-06T11:00:52;6.03;;;3.33;;
73296;SDS011;61524;50.938;11.396;2023-04-06T11:03:18;5.70;;;3.67;;
73296;SDS011;61524;50.938;11.396;2023-04-06T11:05:44;6.07;;;3.60;;
73296;SDS011;61524;50.938;11.396;2023-04-06T11:08:10;6.47;;;3.50;;
73296;SDS011;61524;50.938;11.396;2023-04-06T11:10:35;7.57;;;3.92;;
73296;SDS011;61524;50.938;11.396;2023-04-06T11:13:01;7.13;;;3.50;;
73296;SDS011;61524;50.938;11.396;2023-04-06T11:15:26;5.60;;;3.47;;
73296;SDS011;61524;50.938;11.396;2023-04-06T11:17:51;6.40;;;3.00;;
73296;SDS011;61524;50.938;11.396;2023-04-06T11:20:16;8.25;;;4.05;;
73296;SDS011;61524;50.938;11.396;2023-04-06T11:22:50;6.70;;;3.60;;
73296;SDS011;61524;50.938;11.396;2023-04-06T11:25:16;6.78;;;3.75;;
73296;SDS011;61524;50.938;11.396;2023-04-06T11:27:42;7.10;;;3.58;;
73296;SDS011;61524;50.938;11.396;2023-04-06T11:30:07;4.85;;;2.90;;
73296;SDS011;61524;50.938;11.396;2023-04-06T11:32:40;5.32;;;3.08;;
73296;SDS011;61524;50.938;11.396;2023-04-06T11:35:07;5.75;;;3.50;;
73296;SDS011;61524;50.938;11.396;2023-04-06T11:37:32;5.40;;;3.42;;
73296;SDS011;61524;50.938;11.396;2023-04-06T11:39:58;10.18;;;3.85;;
73296;SDS011;61524;50.938;11.396;2023-04-06T11:42:29;5.70;;;3.45;;
73296;SDS011;61524;50.938;11.396;2023-04-06T11:44:55;6.35;;;3.55;;
73296;SDS011;61524;50.938;11.396;2023-04-06T11:47:27;7.00;;;4.03;;
73296;SDS011;61524;50.938;11.396;2023-04-06T11:49:52;6.38;;;3.00;;
73296;SDS011;61524;50.938;11.396;2023-04-06T11:52:19;6.28;;;3.67;;
73296;SDS011;61524;50.938;11.396;2023-04-06T11:54:45;9.98;;;3.95;;
73296;SDS011;61524;50.938;11.396;2023-04-06T11:57:11;8.23;;;3.60;;
73296;SDS011;61524;50.938;11.396;2023-04-06T11:59:36;7.23;;;3.47;;
73296;SDS011;61524;50.938;11.396;2023-04-06T12:02:02;7.60;;;3.60;;
73296;SDS011;61524;50.938;11.396;2023-04-06T12:04:28;6.90;;;4.10;;
73296;SDS011;61524;50.938;11.396;2023-04-06T12:06:53;6.75;;;3.78;;
73296;SDS011;61524;50.938;11.396;2023-04-06T12:09:18;6.95;;;3.30;;
73296;SDS011;61524;50.938;11.396;2023-04-06T12:11:44;5.83;;;3.43;;
73296;SDS011;61524;50.938;11.396;2023-04-06T12:14:10;8.13;;;3.88;;
73296;SDS011;61524;50.938;11.396;2023-04-06T12:16:35;5.95;;;3.13;;
73296;SDS011;61524;50.938;11.396;2023-04-06T12:19:01;5.70;;;3.17;;
73296;SDS011;61524;50.938;11.396;2023-04-06T12:21:27;5.88;;;3.47;;
73296;SDS011;61524;50.938;11.396;2023-04-06T12:23:52;9.98;;;3.45;;
73296;SDS011;61524;50.938;11.396;2023-04-06T12:26:18;7.10;;;4.07;;
73296;SDS011;61524;50.938;11.396;2023-04-06T12:28:43;6.22;;;3.40;;
73296;SDS011;61524;50.938;11.396;2023-04-06T12:31:16;4.97;;;3.10;;
73296;SDS011;61524;50.938;11.396;2023-04-06T12:33:42;7.97;;;3.88;;
73296;SDS011;61524;50.938;11.396;2023-04-06T12:36:17;5.93;;;3.55;;
73296;SDS011;61524;50.938;11.396;2023-04-06T12:38:49;8.88;;;3.72;;
73296;SDS011;61524;50.938;11.396;2023-04-06T12:41:15;6.88;;;4.07;;
73296;SDS011;61524;50.938;11.396;2023-04-06T12:43:41;6.75;;;3.72;;
73296;SDS011;61524;50.938;11.396;2023-04-06T12:46:06;5.47;;;3.60;;
73296;SDS011;61524;50.938;11.396;2023-04-06T12:48:32;7.78;;;4.05;;
73296;SDS011;61524;50.938;11.396;2023-04-06T12:50:57;5.45;;;3.35;;
73296;SDS011;61524;50.938;11.396;2023-04-06T12:53:23;7.93;;;4.07;;
73296;SDS011;61524;50.938;11.396;2023-04-06T12:55:48;6.25;;;3.20;;
73296;SDS011;61524;50.938;11.396;2023-04-06T12:58:14;4.95;;;3.22;;
73296;SDS011;61524;50.938;11.396;2023-04-06T13:00:40;6.97;;;3.50;;
73296;SDS011;61524;50.938;11.396;2023-04-06T13:03:05;5.38;;;3.28;;
73296;SDS011;61524;50.938;11.396;2023-04-06T13:05:31;5.22;;;3.22;;
73296;SDS011;61524;50.938;11.396;2023-04-06T13:07:56;6.13;;;3.20;;
73296;SDS011;61524;50.938;11.396;2023-04-06T13:10:22;5.75;;;3.30;;
73296;SDS011;61524;50.938;11.396;2023-04-06T13:12:47;5.50;;;3.10;;
73296;SDS011;61524;50.938;11.396;2023-04-06T13:15:12;4.70;;;2.77;;
73296;SDS011;61524;50.938;11.396;2023-04-06T13:17:38;8.23;;;4.03;;
73296;SDS011;61524;50.938;11.396;2023-04-06T13:20:03;6.25;;;3.40;;
73296;SDS011;61524;50.938;11.396;2023-04-06T13:22:29;6.85;;;3.83;;
73296;SDS011;61524;50.938;11.396;2023-04-06T13:24:54;6.00;;;3.63;;
73296;SDS011;61524;50.938;11.396;2023-04-06T13:27:20;7.73;;;3.40;;
73296;SDS011;61524;50.938;11.396;2023-04-06T13:29:45;5.37;;;3.20;;
73296;SDS011;61524;50.938;11.396;2023-04-06T13:32:10;5.30;;;3.85;;
73296;SDS011;61524;50.938;11.396;2023-04-06T13:34:35;6.20;;;3.35;;
73296;SDS011;61524;50.938;11.396;2023-04-06T13:37:01;6.93;;;3.70;;
73296;SDS011;61524;50.938;11.396;2023-04-06T13:39:26;5.93;;;3.30;;
73296;SDS011;61524;50.938;11.396;2023-04-06T13:41:53;6.53;;;3.63;;
73296;SDS011;61524;50.938;11.396;2023-04-06T13:44:18;5.43;;;2.90;;
73296;SDS011;61524;50.938;11.396;2023-04-06T13:46:44;5.82;;;2.85;;
73296;SDS011;61524;50.938;11.396;2023-04-06T13:49:09;5.60;;;2.67;;
73296;SDS011;61524;50.938;11.396;2023-04-06T13:51:34;4.97;;;3.25;;
73296;SDS011;61524;50.938;11.396;2023-04-06T13:54:00;5.85;;;2.97;;
73296;SDS011;61524;50.938;11.396;2023-04-06T13:56:25;6.03;;;3.10;;
73296;SDS011;61524;50.938;11.396;2023-04-06T13:58:53;6.55;;;3.42;;
73296;SDS011;61524;50.938;11.396;2023-04-06T14:01:18;6.45;;;2.95;;
73296;SDS011;61524;50.938;11.396;2023-04-06T14:03:44;6.10;;;3.27;;
73296;SDS011;61524;50.938;11.396;2023-04-06T14:06:12;4.95;;;2.95;;
73296;SDS011;61524;50.938;11.396;2023-04-06T14:08:37;5.15;;;2.40;;
73296;SDS011;61524;50.938;11.396;2023-04-06T14:11:03;4.82;;;2.63;;
73296;SDS011;61524;50.938;11.396;2023-04-06T14:13:28;4.70;;;2.70;;
73296;SDS011;61524;50.938;11.396;2023-04-06T14:15:53;5.27;;;2.87;;
73296;SDS011;61524;50.938;11.396;2023-04-06T14:18:20;6.90;;;3.08;;
73296;SDS011;61524;50.938;11.396;2023-04-06T14:20:52;6.20;;;3.25;;
73296;SDS011;61524;50.938;11.396;2023-04-06T14:23:18;4.70;;;2.65;;
73296;SDS011;61524;50.938;11.396;2023-04-06T14:25:43;4.87;;;2.57;;
73296;SDS011;61524;50.938;11.396;2023-04-06T14:28:08;6.00;;;2.90;;
73296;SDS011;61524;50.938;11.396;2023-04-06T14:30:33;5.23;;;2.33;;
73296;SDS011;61524;50.938;11.396;2023-04-06T14:32:59;6.43;;;2.57;;